sensor_id;sensor_type;location;lat;lon;timestamp;P1;durP1;ratioP1;P2;durP2;ratioP2
42294;SDS011;27947;47.556;18.718;2022-11-20T00:02:21;12.05;;;3.92;;
42294;SDS011;27947;47.556;18.718;2022-11-20T00:04:46;8.02;;;3.22;;
42294;SDS011;27947;47.556;18.718;2022-11-20T00:07:11;6.78;;;3.25;;
42294;SDS011;27947;47.556;18.718;2022-11-20T00:09:37;10.70;;;3.42;;
42294;SDS011;27947;47.556;18.718;2022-11-20T00:12:02;8.18;;;3.20;;
42294;SDS011;27947;47.556;18.718;2022-11-20T00:14:28;8.40;;;3.33;;
42294;SDS011;27947;47.556;18.718;2022-11-20T00:16:53;7.30;;;3.72;;
42294;SDS011;27947;47.556;18.718;2022-11-20T00:19:18;12.20;;;3.75;;
42294;SDS011;27947;47.556;18.718;2022-11-20T00:21:44;7.20;;;3.58;;
42294;SDS011;27947;47.556;18.718;2022-11-20T00:24:09;7.75;;;2.80;;
42294;SDS011;27947;47.556;18.718;2022-11-20T00:26:37;8.18;;;3.00;;
42294;SDS011;27947;47.556;18.718;2022-11-20T00:29:03;8.32;;;2.45;;
42294;SDS011;27947;47.556;18.718;2022-11-20T00:31:28;11.77;;;3.20;;
42294;SDS011;27947;47.556;18.718;2022-11-20T00:33:54;15.02;;;3.63;;
42294;SDS011;27947;47.556;18.718;2022-11-20T00:36:20;5.18;;;2.30;;
42294;SDS011;27947;47.556;18.718;2022-11-20T00:38:46;11.63;;;4.15;;
42294;SDS011;27947;47.556;18.718;2022-11-20T00:41:12;10.65;;;3.22;;
42294;SDS011;27947;47.556;18.718;2022-11-20T00:43:38;6.70;;;2.78;;
42294;SDS011;27947;47.556;18.718;2022-11-20T00:46:05;11.15;;;4.32;;
42294;SDS011;27947;47.556;18.718;2022-11-20T00:48:31;10.95;;;3.47;;
42294;SDS011;27947;47.556;18.718;2022-11-20T00:50:57;10.50;;;3.22;;
42294;SDS011;27947;47.556;18.718;2022-11-20T00:53:22;9.02;;;3.30;;
42294;SDS011;27947;47.556;18.718;2022-11-20T00:55:58;10.98;;;2.42;;
42294;SDS011;27947;47.556;18.718;2022-11-20T00:58:28;8.75;;;3.42;;
42294;SDS011;27947;47.556;18.718;2022-11-20T01:00:54;7.78;;;2.70;;
42294;SDS011;27947;47.556;18.718;2022-11-20T01:03:24;9.75;;;2.80;;
42294;SDS011;27947;47.556;18.718;2022-11-20T01:05:49;7.78;;;3.20;;
42294;SDS011;27947;47.556;18.718;2022-11-20T01:08:14;9.90;;;3.45;;
42294;SDS011;27947;47.556;18.718;2022-11-20T01:10:40;11.00;;;3.22;;
42294;SDS011;27947;47.556;18.718;2022-11-20T01:13:05;6.63;;;2.25;;
42294;SDS011;27947;47.556;18.718;2022-11-20T01:15:49;4.70;;;2.50;;
42294;SDS011;27947;47.556;18.718;2022-11-20T01:18:14;8.85;;;3.05;;
42294;SDS011;27947;47.556;18.718;2022-11-20T01:20:39;6.05;;;2.53;;
42294;SDS011;27947;47.556;18.718;2022-11-20T01:23:05;8.48;;;2.80;;
42294;SDS011;27947;47.556;18.718;2022-11-20T01:25:30;4.90;;;2.50;;
42294;SDS011;27947;47.556;18.718;2022-11-20T01:27:55;9.68;;;2.45;;
42294;SDS011;27947;47.556;18.718;2022-11-20T01:30:21;5.90;;;2.38;;
42294;SDS011;27947;47.556;18.718;2022-11-20T01:32:46;7.63;;;3.55;;
42294;SDS011;27947;47.556;18.718;2022-11-20T01:35:11;6.55;;;2.30;;
42294;SDS011;27947;47.556;18.718;2022-11-20T01:37:37;6.10;;;2.22;;
42294;SDS011;27947;47.556;18.718;2022-11-20T01:40:02;9.30;;;3.40;;
42294;SDS011;27947;47.556;18.718;2022-11-20T01:42:28;4.65;;;2.40;;
42294;SDS011;27947;47.556;18.718;2022-11-20T01:47:55;4.60;;;1.67;;
42294;SDS011;27947;47.556;18.718;2022-11-20T01:50:24;8.57;;;2.42;;
42294;SDS011;27947;47.556;18.718;2022-11-20T01:52:55;6.40;;;3.08;;
42294;SDS011;27947;47.556;18.718;2022-11-20T01:55:22;6.22;;;2.45;;
42294;SDS011;27947;47.556;18.718;2022-11-20T01:57:48;6.38;;;2.72;;
42294;SDS011;27947;47.556;18.718;2022-11-20T02:00:15;9.90;;;2.60;;
42294;SDS011;27947;47.556;18.718;2022-11-20T02:02:43;7.15;;;2.30;;
42294;SDS011;27947;47.556;18.718;2022-11-20T02:05:14;10.90;;;2.92;;
42294;SDS011;27947;47.556;18.718;2022-11-20T02:07:42;7.35;;;2.22;;
42294;SDS011;27947;47.556;18.718;2022-11-20T02:10:08;3.45;;;1.80;;
42294;SDS011;27947;47.556;18.718;2022-11-20T02:12:33;11.15;;;3.60;;
42294;SDS011;27947;47.556;18.718;2022-11-20T02:15:17;7.97;;;2.47;;
42294;SDS011;27947;47.556;18.718;2022-11-20T02:17:42;8.80;;;3.15;;
42294;SDS011;27947;47.556;18.718;2022-11-20T02:20:08;6.97;;;2.83;;
42294;SDS011;27947;47.556;18.718;2022-11-20T02:22:35;7.63;;;2.97;;
42294;SDS011;27947;47.556;18.718;2022-11-20T02:25:04;8.48;;;2.38;;
42294;SDS011;27947;47.556;18.718;2022-11-20T02:27:31;6.95;;;2.55;;
42294;SDS011;27947;47.556;18.718;2022-11-20T02:29:58;5.40;;;1.83;;
42294;SDS011;27947;47.556;18.718;2022-11-20T02:34:53;6.00;;;2.65;;
42294;SDS011;27947;47.556;18.718;2022-11-20T02:37:19;7.82;;;3.78;;
42294;SDS011;27947;47.556;18.718;2022-11-20T02:39:46;6.13;;;2.45;;
42294;SDS011;27947;47.556;18.718;2022-11-20T02:42:12;7.32;;;2.58;;
42294;SDS011;27947;47.556;18.718;2022-11-20T02:44:37;6.75;;;2.63;;
42294;SDS011;27947;47.556;18.718;2022-11-20T02:47:02;6.80;;;1.83;;
42294;SDS011;27947;47.556;18.718;2022-11-20T02:49:28;4.75;;;2.22;;
42294;SDS011;27947;47.556;18.718;2022-11-20T02:51:53;4.90;;;1.73;;
42294;SDS011;27947;47.556;18.718;2022-11-20T02:54:18;7.20;;;2.55;;
42294;SDS011;27947;47.556;18.718;2022-11-20T02:56:44;6.72;;;2.85;;
42294;SDS011;27947;47.556;18.718;2022-11-20T02:59:09;6.15;;;1.70;;
42294;SDS011;27947;47.556;18.718;2022-11-20T03:01:35;8.20;;;2.92;;
42294;SDS011;27947;47.556;18.718;2022-11-20T03:04:00;6.80;;;2.67;;
42294;SDS011;27947;47.556;18.718;2022-11-20T03:06:25;6.88;;;2.83;;
42294;SDS011;27947;47.556;18.718;2022-11-20T03:08:51;6.53;;;2.53;;
42294;SDS011;27947;47.556;18.718;2022-11-20T03:11:16;8.82;;;2.20;;
42294;SDS011;27947;47.556;18.718;2022-11-20T03:13:42;6.22;;;2.40;;
42294;SDS011;27947;47.556;18.718;2022-11-20T03:16:12;6.63;;;2.65;;
42294;SDS011;27947;47.556;18.718;2022-11-20T03:18:37;9.95;;;2.50;;
42294;SDS011;27947;47.556;18.718;2022-11-20T03:21:03;5.18;;;3.05;;
42294;SDS011;27947;47.556;18.718;2022-11-20T03:23:29;9.40;;;3.90;;
42294;SDS011;27947;47.556;18.718;2022-11-20T03:25:55;11.48;;;2.88;;
42294;SDS011;27947;47.556;18.718;2022-11-20T03:28:20;8.65;;;2.97;;
42294;SDS011;27947;47.556;18.718;2022-11-20T03:30:45;9.35;;;3.20;;
42294;SDS011;27947;47.556;18.718;2022-11-20T03:33:11;5.43;;;2.40;;
42294;SDS011;27947;47.556;18.718;2022-11-20T03:35:36;9.48;;;4.07;;
42294;SDS011;27947;47.556;18.718;2022-11-20T03:38:01;12.40;;;3.92;;
42294;SDS011;27947;47.556;18.718;2022-11-20T03:40:27;10.63;;;3.22;;
42294;SDS011;27947;47.556;18.718;2022-11-20T03:42:52;7.97;;;3.78;;
42294;SDS011;27947;47.556;18.718;2022-11-20T03:45:17;7.20;;;2.92;;
42294;SDS011;27947;47.556;18.718;2022-11-20T03:47:43;8.85;;;2.42;;
42294;SDS011;27947;47.556;18.718;2022-11-20T03:50:10;8.88;;;3.38;;
42294;SDS011;27947;47.556;18.718;2022-11-20T03:52:35;7.43;;;3.20;;
42294;SDS011;27947;47.556;18.718;2022-11-20T03:55:00;10.30;;;2.67;;
42294;SDS011;27947;47.556;18.718;2022-11-20T03:57:26;10.20;;;3.80;;
42294;SDS011;27947;47.556;18.718;2022-11-20T03:59:51;6.88;;;3.13;;
42294;SDS011;27947;47.556;18.718;2022-11-20T04:02:17;8.35;;;3.28;;
42294;SDS011;27947;47.556;18.718;2022-11-20T04:04:42;15.85;;;3.78;;
42294;SDS011;27947;47.556;18.718;2022-11-20T04:07:07;10.50;;;3.80;;
42294;SDS011;27947;47.556;18.718;2022-11-20T04:09:33;9.55;;;3.38;;
42294;SDS011;27947;47.556;18.718;2022-11-20T04:11:58;11.02;;;3.33;;
42294;SDS011;27947;47.556;18.718;2022-11-20T04:14:24;8.23;;;2.28;;
42294;SDS011;27947;47.556;18.718;2022-11-20T04:16:49;6.07;;;2.63;;
42294;SDS011;27947;47.556;18.718;2022-11-20T04:19:15;9.32;;;3.22;;
42294;SDS011;27947;47.556;18.718;2022-11-20T04:21:40;9.55;;;3.70;;
42294;SDS011;27947;47.556;18.718;2022-11-20T04:24:06;8.13;;;3.58;;
42294;SDS011;27947;47.556;18.718;2022-11-20T04:26:32;10.88;;;3.40;;
42294;SDS011;27947;47.556;18.718;2022-11-20T04:28:58;10.43;;;3.25;;
42294;SDS011;27947;47.556;18.718;2022-11-20T04:31:24;9.23;;;3.55;;
42294;SDS011;27947;47.556;18.718;2022-11-20T04:33:50;8.05;;;3.25;;
42294;SDS011;27947;47.556;18.718;2022-11-20T04:36:17;19.98;;;3.70;;
42294;SDS011;27947;47.556;18.718;2022-11-20T04:38:42;11.27;;;2.72;;
42294;SDS011;27947;47.556;18.718;2022-11-20T04:41:09;7.55;;;1.92;;
42294;SDS011;27947;47.556;18.718;2022-11-20T04:43:37;8.27;;;3.63;;
42294;SDS011;27947;47.556;18.718;2022-11-20T04:46:02;6.85;;;2.40;;
42294;SDS011;27947;47.556;18.718;2022-11-20T04:48:28;9.38;;;2.75;;
42294;SDS011;27947;47.556;18.718;2022-11-20T04:50:54;8.43;;;2.78;;
42294;SDS011;27947;47.556;18.718;2022-11-20T04:53:19;10.80;;;3.38;;
42294;SDS011;27947;47.556;18.718;2022-11-20T04:55:45;8.77;;;3.60;;
42294;SDS011;27947;47.556;18.718;2022-11-20T04:58:11;7.22;;;3.20;;
42294;SDS011;27947;47.556;18.718;2022-11-20T05:00:36;11.57;;;3.90;;
42294;SDS011;27947;47.556;18.718;2022-11-20T05:03:01;14.57;;;2.63;;
42294;SDS011;27947;47.556;18.718;2022-11-20T05:05:27;8.23;;;3.15;;
42294;SDS011;27947;47.556;18.718;2022-11-20T05:07:52;7.72;;;2.95;;
42294;SDS011;27947;47.556;18.718;2022-11-20T05:10:17;9.13;;;2.65;;
42294;SDS011;27947;47.556;18.718;2022-11-20T05:12:43;8.38;;;3.17;;
42294;SDS011;27947;47.556;18.718;2022-11-20T05:15:08;7.53;;;2.08;;
42294;SDS011;27947;47.556;18.718;2022-11-20T05:17:34;8.27;;;2.97;;
42294;SDS011;27947;47.556;18.718;2022-11-20T05:19:59;4.70;;;1.73;;
42294;SDS011;27947;47.556;18.718;2022-11-20T05:22:24;8.55;;;2.92;;
42294;SDS011;27947;47.556;18.718;2022-11-20T05:24:49;7.55;;;2.42;;
42294;SDS011;27947;47.556;18.718;2022-11-20T05:27:15;8.90;;;2.88;;
42294;SDS011;27947;47.556;18.718;2022-11-20T05:29:40;8.85;;;3.28;;
42294;SDS011;27947;47.556;18.718;2022-11-20T05:32:06;10.98;;;4.05;;
42294;SDS011;27947;47.556;18.718;2022-11-20T05:34:34;13.70;;;2.97;;
42294;SDS011;27947;47.556;18.718;2022-11-20T05:36:59;6.95;;;2.90;;
42294;SDS011;27947;47.556;18.718;2022-11-20T05:39:24;12.57;;;3.33;;
42294;SDS011;27947;47.556;18.718;2022-11-20T05:41:50;10.93;;;3.00;;
42294;SDS011;27947;47.556;18.718;2022-11-20T05:44:35;5.28;;;2.60;;
42294;SDS011;27947;47.556;18.718;2022-11-20T05:47:00;12.52;;;3.03;;
42294;SDS011;27947;47.556;18.718;2022-11-20T05:49:25;11.85;;;3.42;;
42294;SDS011;27947;47.556;18.718;2022-11-20T05:51:51;9.90;;;3.50;;
42294;SDS011;27947;47.556;18.718;2022-11-20T05:54:16;10.23;;;4.05;;
42294;SDS011;27947;47.556;18.718;2022-11-20T05:56:42;9.75;;;3.78;;
42294;SDS011;27947;47.556;18.718;2022-11-20T05:59:07;10.60;;;3.38;;
42294;SDS011;27947;47.556;18.718;2022-11-20T06:01:33;13.82;;;3.75;;
42294;SDS011;27947;47.556;18.718;2022-11-20T06:03:58;6.72;;;2.67;;
42294;SDS011;27947;47.556;18.718;2022-11-20T06:06:23;15.40;;;3.30;;
42294;SDS011;27947;47.556;18.718;2022-11-20T06:08:51;6.80;;;2.33;;
42294;SDS011;27947;47.556;18.718;2022-11-20T06:11:16;6.72;;;3.10;;
42294;SDS011;27947;47.556;18.718;2022-11-20T06:13:42;13.15;;;4.72;;
42294;SDS011;27947;47.556;18.718;2022-11-20T06:16:07;13.02;;;3.22;;
42294;SDS011;27947;47.556;18.718;2022-11-20T06:18:33;10.43;;;3.58;;
42294;SDS011;27947;47.556;18.718;2022-11-20T06:21:02;10.63;;;4.93;;
42294;SDS011;27947;47.556;18.718;2022-11-20T06:23:29;14.63;;;4.07;;
42294;SDS011;27947;47.556;18.718;2022-11-20T06:25:54;8.57;;;2.83;;
42294;SDS011;27947;47.556;18.718;2022-11-20T06:28:19;9.55;;;2.90;;
42294;SDS011;27947;47.556;18.718;2022-11-20T06:30:45;6.97;;;2.90;;
42294;SDS011;27947;47.556;18.718;2022-11-20T06:33:11;8.40;;;4.13;;
42294;SDS011;27947;47.556;18.718;2022-11-20T06:35:36;12.38;;;2.78;;
42294;SDS011;27947;47.556;18.718;2022-11-20T06:38:01;8.68;;;3.47;;
42294;SDS011;27947;47.556;18.718;2022-11-20T06:40:27;11.93;;;2.63;;
42294;SDS011;27947;47.556;18.718;2022-11-20T06:42:53;6.45;;;2.33;;
42294;SDS011;27947;47.556;18.718;2022-11-20T06:45:18;8.80;;;2.45;;
42294;SDS011;27947;47.556;18.718;2022-11-20T06:47:44;13.48;;;4.18;;
42294;SDS011;27947;47.556;18.718;2022-11-20T06:50:09;7.97;;;3.33;;
42294;SDS011;27947;47.556;18.718;2022-11-20T06:52:34;9.13;;;2.60;;
42294;SDS011;27947;47.556;18.718;2022-11-20T06:55:00;13.93;;;4.47;;
42294;SDS011;27947;47.556;18.718;2022-11-20T06:57:25;9.23;;;3.78;;
42294;SDS011;27947;47.556;18.718;2022-11-20T06:59:50;10.55;;;4.93;;
42294;SDS011;27947;47.556;18.718;2022-11-20T07:02:15;8.90;;;3.78;;
42294;SDS011;27947;47.556;18.718;2022-11-20T07:04:41;12.60;;;4.20;;
42294;SDS011;27947;47.556;18.718;2022-11-20T07:07:06;14.05;;;3.63;;
42294;SDS011;27947;47.556;18.718;2022-11-20T07:09:32;16.00;;;3.10;;
42294;SDS011;27947;47.556;18.718;2022-11-20T07:11:58;11.32;;;4.15;;
42294;SDS011;27947;47.556;18.718;2022-11-20T07:14:23;6.72;;;3.35;;
42294;SDS011;27947;47.556;18.718;2022-11-20T07:16:49;7.60;;;2.78;;
42294;SDS011;27947;47.556;18.718;2022-11-20T07:19:14;13.25;;;4.75;;
42294;SDS011;27947;47.556;18.718;2022-11-20T07:21:40;9.85;;;4.60;;
42294;SDS011;27947;47.556;18.718;2022-11-20T07:24:05;11.32;;;3.75;;
42294;SDS011;27947;47.556;18.718;2022-11-20T07:26:30;16.02;;;4.60;;
42294;SDS011;27947;47.556;18.718;2022-11-20T07:28:56;13.57;;;5.03;;
42294;SDS011;27947;47.556;18.718;2022-11-20T07:31:21;9.57;;;3.83;;
42294;SDS011;27947;47.556;18.718;2022-11-20T07:33:46;16.77;;;4.55;;
42294;SDS011;27947;47.556;18.718;2022-11-20T07:36:12;16.63;;;5.72;;
42294;SDS011;27947;47.556;18.718;2022-11-20T07:38:37;18.20;;;4.88;;
42294;SDS011;27947;47.556;18.718;2022-11-20T07:41:03;11.68;;;4.47;;
42294;SDS011;27947;47.556;18.718;2022-11-20T07:43:29;11.23;;;3.33;;
42294;SDS011;27947;47.556;18.718;2022-11-20T07:45:57;12.65;;;4.55;;
42294;SDS011;27947;47.556;18.718;2022-11-20T07:48:23;10.93;;;4.78;;
42294;SDS011;27947;47.556;18.718;2022-11-20T07:50:48;11.20;;;4.75;;
42294;SDS011;27947;47.556;18.718;2022-11-20T07:53:14;14.15;;;5.05;;
42294;SDS011;27947;47.556;18.718;2022-11-20T07:55:41;10.15;;;3.60;;
42294;SDS011;27947;47.556;18.718;2022-11-20T07:58:07;7.43;;;3.42;;
42294;SDS011;27947;47.556;18.718;2022-11-20T08:00:32;14.38;;;4.90;;
42294;SDS011;27947;47.556;18.718;2022-11-20T08:02:57;8.02;;;3.20;;
42294;SDS011;27947;47.556;18.718;2022-11-20T08:05:23;9.95;;;3.88;;
42294;SDS011;27947;47.556;18.718;2022-11-20T08:07:48;12.27;;;4.70;;
42294;SDS011;27947;47.556;18.718;2022-11-20T08:10:14;5.93;;;3.22;;
42294;SDS011;27947;47.556;18.718;2022-11-20T08:12:51;9.40;;;4.20;;
42294;SDS011;27947;47.556;18.718;2022-11-20T08:15:35;12.30;;;3.65;;
42294;SDS011;27947;47.556;18.718;2022-11-20T08:18:05;9.25;;;4.20;;
42294;SDS011;27947;47.556;18.718;2022-11-20T08:20:30;11.50;;;4.55;;
42294;SDS011;27947;47.556;18.718;2022-11-20T08:23:00;9.70;;;3.55;;
42294;SDS011;27947;47.556;18.718;2022-11-20T08:25:26;12.05;;;4.55;;
42294;SDS011;27947;47.556;18.718;2022-11-20T08:27:51;15.77;;;6.78;;
42294;SDS011;27947;47.556;18.718;2022-11-20T08:30:16;11.40;;;5.03;;
42294;SDS011;27947;47.556;18.718;2022-11-20T08:32:42;18.75;;;6.38;;
42294;SDS011;27947;47.556;18.718;2022-11-20T08:35:08;11.02;;;4.35;;
42294;SDS011;27947;47.556;18.718;2022-11-20T08:37:33;11.27;;;3.92;;
42294;SDS011;27947;47.556;18.718;2022-11-20T08:39:58;9.18;;;3.35;;
42294;SDS011;27947;47.556;18.718;2022-11-20T08:42:24;14.90;;;4.65;;
42294;SDS011;27947;47.556;18.718;2022-11-20T08:44:49;12.55;;;4.63;;
42294;SDS011;27947;47.556;18.718;2022-11-20T08:47:14;11.40;;;4.32;;
42294;SDS011;27947;47.556;18.718;2022-11-20T08:49:40;10.40;;;4.55;;
42294;SDS011;27947;47.556;18.718;2022-11-20T08:52:05;10.30;;;4.07;;
42294;SDS011;27947;47.556;18.718;2022-11-20T08:54:30;11.65;;;3.97;;
42294;SDS011;27947;47.556;18.718;2022-11-20T08:56:56;14.90;;;3.92;;
42294;SDS011;27947;47.556;18.718;2022-11-20T08:59:21;13.50;;;4.82;;
42294;SDS011;27947;47.556;18.718;2022-11-20T09:01:46;17.42;;;5.00;;
42294;SDS011;27947;47.556;18.718;2022-11-20T09:04:12;11.20;;;4.47;;
42294;SDS011;27947;47.556;18.718;2022-11-20T09:06:39;15.57;;;4.80;;
42294;SDS011;27947;47.556;18.718;2022-11-20T09:09:04;20.65;;;5.60;;
42294;SDS011;27947;47.556;18.718;2022-11-20T09:11:31;15.00;;;4.88;;
42294;SDS011;27947;47.556;18.718;2022-11-20T09:13:56;15.95;;;4.63;;
42294;SDS011;27947;47.556;18.718;2022-11-20T09:16:21;11.02;;;3.80;;
42294;SDS011;27947;47.556;18.718;2022-11-20T09:18:49;13.57;;;4.25;;
42294;SDS011;27947;47.556;18.718;2022-11-20T09:21:14;12.05;;;4.25;;
42294;SDS011;27947;47.556;18.718;2022-11-20T09:23:40;17.25;;;5.13;;
42294;SDS011;27947;47.556;18.718;2022-11-20T09:26:06;6.85;;;3.55;;
42294;SDS011;27947;47.556;18.718;2022-11-20T09:28:32;13.40;;;4.00;;
42294;SDS011;27947;47.556;18.718;2022-11-20T09:30:58;12.23;;;3.67;;
42294;SDS011;27947;47.556;18.718;2022-11-20T09:33:23;10.48;;;4.35;;
42294;SDS011;27947;47.556;18.718;2022-11-20T09:35:48;17.02;;;5.22;;
42294;SDS011;27947;47.556;18.718;2022-11-20T09:38:14;8.43;;;3.63;;
42294;SDS011;27947;47.556;18.718;2022-11-20T09:40:43;14.80;;;3.95;;
42294;SDS011;27947;47.556;18.718;2022-11-20T09:50:52;10.48;;;4.68;;
42294;SDS011;27947;47.556;18.718;2022-11-20T09:56:00;9.77;;;3.83;;
42294;SDS011;27947;47.556;18.718;2022-11-20T10:01:10;11.85;;;4.05;;
42294;SDS011;27947;47.556;18.718;2022-11-20T10:06:34;11.32;;;5.18;;
42294;SDS011;27947;47.556;18.718;2022-11-20T10:11:47;8.85;;;3.45;;
42294;SDS011;27947;47.556;18.718;2022-11-20T10:29:38;12.18;;;4.32;;
42294;SDS011;27947;47.556;18.718;2022-11-20T10:32:07;11.32;;;4.30;;
42294;SDS011;27947;47.556;18.718;2022-11-20T10:37:19;11.35;;;4.38;;
42294;SDS011;27947;47.556;18.718;2022-11-20T10:44:58;11.60;;;5.25;;
42294;SDS011;27947;47.556;18.718;2022-11-20T10:47:27;12.40;;;4.57;;
42294;SDS011;27947;47.556;18.718;2022-11-20T10:49:53;11.65;;;5.07;;
42294;SDS011;27947;47.556;18.718;2022-11-20T10:52:33;14.05;;;5.35;;
42294;SDS011;27947;47.556;18.718;2022-11-20T10:57:30;15.30;;;5.93;;
42294;SDS011;27947;47.556;18.718;2022-11-20T11:00:15;8.70;;;4.35;;
42294;SDS011;27947;47.556;18.718;2022-11-20T11:02:49;9.65;;;3.75;;
42294;SDS011;27947;47.556;18.718;2022-11-20T11:07:40;11.57;;;5.18;;
42294;SDS011;27947;47.556;18.718;2022-11-20T11:10:14;12.88;;;4.43;;
42294;SDS011;27947;47.556;18.718;2022-11-20T11:12:42;13.88;;;5.93;;
42294;SDS011;27947;47.556;18.718;2022-11-20T11:15:12;13.80;;;4.90;;
42294;SDS011;27947;47.556;18.718;2022-11-20T11:17:45;9.38;;;4.82;;
42294;SDS011;27947;47.556;18.718;2022-11-20T11:22:45;13.90;;;5.80;;
42294;SDS011;27947;47.556;18.718;2022-11-20T11:27:49;23.17;;;6.03;;
42294;SDS011;27947;47.556;18.718;2022-11-20T11:30:15;14.70;;;4.97;;
42294;SDS011;27947;47.556;18.718;2022-11-20T11:32:41;15.88;;;5.90;;
42294;SDS011;27947;47.556;18.718;2022-11-20T11:35:07;15.32;;;6.38;;
42294;SDS011;27947;47.556;18.718;2022-11-20T11:37:43;14.20;;;5.80;;
42294;SDS011;27947;47.556;18.718;2022-11-20T11:40:10;14.20;;;5.85;;
42294;SDS011;27947;47.556;18.718;2022-11-20T11:42:40;14.90;;;5.95;;
42294;SDS011;27947;47.556;18.718;2022-11-20T11:45:06;20.77;;;8.02;;
42294;SDS011;27947;47.556;18.718;2022-11-20T11:47:37;14.50;;;5.90;;
42294;SDS011;27947;47.556;18.718;2022-11-20T11:52:36;16.63;;;5.70;;
42294;SDS011;27947;47.556;18.718;2022-11-20T11:55:05;14.88;;;6.13;;
42294;SDS011;27947;47.556;18.718;2022-11-20T12:07:43;13.02;;;4.47;;
42294;SDS011;27947;47.556;18.718;2022-11-20T12:10:21;13.40;;;4.78;;
42294;SDS011;27947;47.556;18.718;2022-11-20T12:12:51;13.43;;;5.85;;
42294;SDS011;27947;47.556;18.718;2022-11-20T12:15:32;15.97;;;5.67;;
42294;SDS011;27947;47.556;18.718;2022-11-20T12:17:58;13.88;;;4.88;;
42294;SDS011;27947;47.556;18.718;2022-11-20T12:20:25;16.73;;;6.00;;
42294;SDS011;27947;47.556;18.718;2022-11-20T12:25:29;16.08;;;6.10;;
42294;SDS011;27947;47.556;18.718;2022-11-20T12:30:20;14.52;;;5.68;;
42294;SDS011;27947;47.556;18.718;2022-11-20T12:43:24;13.85;;;5.00;;
42294;SDS011;27947;47.556;18.718;2022-11-20T12:53:54;12.48;;;4.63;;
42294;SDS011;27947;47.556;18.718;2022-11-20T13:01:31;17.38;;;5.65;;
42294;SDS011;27947;47.556;18.718;2022-11-20T13:06:33;13.57;;;5.00;;
42294;SDS011;27947;47.556;18.718;2022-11-20T13:08:59;13.15;;;4.75;;
42294;SDS011;27947;47.556;18.718;2022-11-20T13:14:02;12.30;;;6.07;;
42294;SDS011;27947;47.556;18.718;2022-11-20T13:19:25;15.38;;;5.38;;
42294;SDS011;27947;47.556;18.718;2022-11-20T13:21:53;13.95;;;6.15;;
42294;SDS011;27947;47.556;18.718;2022-11-20T13:26:44;11.60;;;5.43;;
42294;SDS011;27947;47.556;18.718;2022-11-20T13:29:16;13.80;;;4.55;;
42294;SDS011;27947;47.556;18.718;2022-11-20T13:31:43;16.67;;;5.28;;
42294;SDS011;27947;47.556;18.718;2022-11-20T13:34:10;17.60;;;5.30;;
42294;SDS011;27947;47.556;18.718;2022-11-20T13:36:36;17.80;;;5.60;;
42294;SDS011;27947;47.556;18.718;2022-11-20T13:39:23;15.63;;;5.10;;
42294;SDS011;27947;47.556;18.718;2022-11-20T13:41:53;13.80;;;6.13;;
42294;SDS011;27947;47.556;18.718;2022-11-20T13:44:36;17.30;;;5.47;;
42294;SDS011;27947;47.556;18.718;2022-11-20T13:47:03;16.05;;;5.85;;
42294;SDS011;27947;47.556;18.718;2022-11-20T13:49:32;17.02;;;5.88;;
42294;SDS011;27947;47.556;18.718;2022-11-20T14:02:20;19.30;;;5.33;;
42294;SDS011;27947;47.556;18.718;2022-11-20T14:04:46;13.90;;;6.05;;
42294;SDS011;27947;47.556;18.718;2022-11-20T14:07:12;11.85;;;5.18;;
42294;SDS011;27947;47.556;18.718;2022-11-20T14:09:38;15.13;;;5.82;;
42294;SDS011;27947;47.556;18.718;2022-11-20T14:12:04;9.75;;;5.47;;
42294;SDS011;27947;47.556;18.718;2022-11-20T14:14:30;16.73;;;6.60;;
42294;SDS011;27947;47.556;18.718;2022-11-20T14:20:00;17.67;;;5.93;;
42294;SDS011;27947;47.556;18.718;2022-11-20T14:22:26;15.68;;;5.47;;
42294;SDS011;27947;47.556;18.718;2022-11-20T14:25:18;11.48;;;5.03;;
42294;SDS011;27947;47.556;18.718;2022-11-20T14:27:56;17.05;;;5.28;;
42294;SDS011;27947;47.556;18.718;2022-11-20T14:30:26;13.73;;;5.55;;
42294;SDS011;27947;47.556;18.718;2022-11-20T14:32:53;15.65;;;5.40;;
42294;SDS011;27947;47.556;18.718;2022-11-20T14:35:42;20.70;;;7.10;;
42294;SDS011;27947;47.556;18.718;2022-11-20T14:38:07;11.75;;;5.60;;
42294;SDS011;27947;47.556;18.718;2022-11-20T14:40:34;16.85;;;6.25;;
42294;SDS011;27947;47.556;18.718;2022-11-20T14:43:00;13.82;;;5.75;;
42294;SDS011;27947;47.556;18.718;2022-11-20T14:45:26;15.82;;;5.90;;
42294;SDS011;27947;47.556;18.718;2022-11-20T14:47:52;14.32;;;5.90;;
42294;SDS011;27947;47.556;18.718;2022-11-20T14:50:19;15.45;;;4.63;;
42294;SDS011;27947;47.556;18.718;2022-11-20T14:57:56;16.17;;;5.00;;
42294;SDS011;27947;47.556;18.718;2022-11-20T15:00:22;15.98;;;5.90;;
42294;SDS011;27947;47.556;18.718;2022-11-20T15:02:49;17.90;;;6.72;;
42294;SDS011;27947;47.556;18.718;2022-11-20T15:05:16;10.85;;;5.95;;
42294;SDS011;27947;47.556;18.718;2022-11-20T15:07:42;10.80;;;4.72;;
42294;SDS011;27947;47.556;18.718;2022-11-20T15:10:23;17.33;;;6.30;;
42294;SDS011;27947;47.556;18.718;2022-11-20T15:12:53;20.25;;;5.90;;
42294;SDS011;27947;47.556;18.718;2022-11-20T15:18:03;15.80;;;5.40;;
42294;SDS011;27947;47.556;18.718;2022-11-20T15:20:30;13.85;;;4.90;;
42294;SDS011;27947;47.556;18.718;2022-11-20T15:22:56;18.17;;;6.55;;
42294;SDS011;27947;47.556;18.718;2022-11-20T15:25:21;12.05;;;4.93;;
42294;SDS011;27947;47.556;18.718;2022-11-20T15:27:49;12.18;;;5.13;;
42294;SDS011;27947;47.556;18.718;2022-11-20T15:30:18;12.48;;;5.25;;
42294;SDS011;27947;47.556;18.718;2022-11-20T15:32:43;13.88;;;5.45;;
42294;SDS011;27947;47.556;18.718;2022-11-20T15:35:09;14.40;;;4.93;;
42294;SDS011;27947;47.556;18.718;2022-11-20T15:37:35;18.85;;;6.45;;
42294;SDS011;27947;47.556;18.718;2022-11-20T15:40:00;14.18;;;5.72;;
42294;SDS011;27947;47.556;18.718;2022-11-20T15:42:26;15.70;;;6.07;;
42294;SDS011;27947;47.556;18.718;2022-11-20T15:44:51;17.10;;;6.30;;
42294;SDS011;27947;47.556;18.718;2022-11-20T15:47:24;12.80;;;5.85;;
42294;SDS011;27947;47.556;18.718;2022-11-20T15:49:50;13.32;;;5.40;;
42294;SDS011;27947;47.556;18.718;2022-11-20T15:52:16;16.38;;;5.95;;
42294;SDS011;27947;47.556;18.718;2022-11-20T15:54:41;11.88;;;5.00;;
42294;SDS011;27947;47.556;18.718;2022-11-20T15:57:06;12.90;;;5.75;;
42294;SDS011;27947;47.556;18.718;2022-11-20T15:59:32;10.65;;;5.05;;
42294;SDS011;27947;47.556;18.718;2022-11-20T16:01:57;12.80;;;5.57;;
42294;SDS011;27947;47.556;18.718;2022-11-20T16:04:23;15.25;;;5.43;;
42294;SDS011;27947;47.556;18.718;2022-11-20T16:06:48;15.88;;;7.47;;
42294;SDS011;27947;47.556;18.718;2022-11-20T16:09:13;20.40;;;6.85;;
42294;SDS011;27947;47.556;18.718;2022-11-20T16:11:39;16.77;;;6.80;;
42294;SDS011;27947;47.556;18.718;2022-11-20T16:14:04;13.90;;;5.20;;
42294;SDS011;27947;47.556;18.718;2022-11-20T16:16:49;16.42;;;6.82;;
42294;SDS011;27947;47.556;18.718;2022-11-20T16:19:14;22.83;;;5.68;;
42294;SDS011;27947;47.556;18.718;2022-11-20T16:21:40;14.75;;;5.68;;
42294;SDS011;27947;47.556;18.718;2022-11-20T16:24:07;17.15;;;6.50;;
42294;SDS011;27947;47.556;18.718;2022-11-20T16:26:33;15.38;;;5.97;;
42294;SDS011;27947;47.556;18.718;2022-11-20T16:28:59;20.73;;;6.28;;
42294;SDS011;27947;47.556;18.718;2022-11-20T16:31:24;18.02;;;6.05;;
42294;SDS011;27947;47.556;18.718;2022-11-20T16:33:50;14.45;;;5.70;;
42294;SDS011;27947;47.556;18.718;2022-11-20T16:36:16;18.45;;;5.65;;